createdAt,value
2022-09-14T00:00:32.241Z,75.62
2022-09-14T00:01:25.708Z,75.81
2022-09-14T00:02:12.875Z,75.82
2022-09-14T00:02:59.735Z,76.37
2022-09-14T00:03:46.414Z,76.19
2022-09-14T00:04:33.051Z,75.97
2022-09-14T00:05:19.630Z,75.98
2022-09-14T00:06:07.873Z,76.22
2022-09-14T00:06:54.521Z,76.52
2022-09-14T00:07:41.111Z,76.61
2022-09-14T00:08:27.731Z,76.88
2022-09-14T00:09:20.473Z,77.11
2022-09-14T00:10:07.420Z,77.34
2022-09-14T00:10:54.021Z,77.48
2022-09-14T00:11:41.421Z,77.95
2022-09-14T00:12:28.231Z,77.70
2022-09-14T00:13:15.232Z,77.79
2022-09-14T00:14:02.971Z,78.34
2022-09-14T00:14:49.583Z,79.14
2022-09-14T00:15:40.360Z,79.00
2022-09-14T00:16:33.650Z,79.24
2022-09-14T00:17:20.413Z,79.42
2022-09-14T00:18:08.622Z,79.51
2022-09-14T00:18:59.190Z,79.49
2022-09-14T00:19:45.894Z,79.61
2022-09-14T00:20:33.281Z,80.25
2022-09-14T00:21:20.708Z,80.56
2022-09-14T00:22:07.381Z,80.68
2022-09-14T00:22:54.028Z,81.16
2022-09-14T00:23:42.222Z,81.59
2022-09-14T00:24:35.883Z,81.77
2022-09-14T00:25:22.481Z,82.01
2022-09-14T00:26:15.460Z,82.36
2022-09-14T00:27:03.861Z,82.54
2022-09-14T00:27:50.460Z,82.49
2022-09-14T00:28:42.339Z,82.60
2022-09-14T00:29:30.310Z,82.52
2022-09-14T00:30:17.063Z,82.67
2022-09-14T00:31:05.061Z,83.02
2022-09-14T00:31:52.329Z,83.32
2022-09-14T00:32:39.000Z,83.54
2022-09-14T00:33:25.600Z,83.66
2022-09-14T00:34:15.080Z,83.81
2022-09-14T00:35:01.671Z,84.19
2022-09-14T00:35:48.397Z,84.14
2022-09-14T00:36:39.930Z,84.11
2022-09-14T00:37:26.531Z,84.16
2022-09-14T00:38:13.212Z,84.29
2022-09-14T00:39:00.907Z,84.47
2022-09-14T00:39:48.581Z,84.75
2022-09-14T00:40:35.345Z,84.89
2022-09-14T00:41:24.760Z,84.52
2022-09-14T00:42:15.761Z,84.51
2022-09-14T00:43:02.490Z,84.37
2022-09-14T00:44:00.140Z,84.59
2022-09-14T00:44:46.654Z,85.08
2022-09-14T00:45:33.444Z,84.82
2022-09-14T00:46:20.919Z,85.05
2022-09-14T00:47:07.650Z,85.13
2022-09-14T00:47:54.507Z,84.92
2022-09-14T00:48:41.122Z,84.74
2022-09-14T00:49:32.080Z,84.69
2022-09-14T00:50:18.990Z,84.55
2022-09-14T00:51:05.877Z,84.17
2022-09-14T00:52:04.040Z,84.43
2022-09-14T00:52:50.840Z,84.82
2022-09-14T00:53:37.501Z,85.03
2022-09-14T00:54:24.530Z,85.41
2022-09-14T00:55:14.663Z,85.55
2022-09-14T00:56:01.240Z,85.95
2022-09-14T00:56:48.420Z,86.11
2022-09-14T00:57:38.304Z,86.10
2022-09-14T00:58:24.982Z,86.08
2022-09-14T00:59:20.540Z,85.95
2022-09-14T01:00:10.420Z,85.92
2022-09-14T01:00:57.675Z,85.88
2022-09-14T01:01:44.870Z,85.92
2022-09-14T01:02:31.719Z,86.30
2022-09-14T01:03:18.450Z,86.17
2022-09-14T01:04:05.120Z,86.09
2022-09-14T01:04:52.106Z,85.88
2022-09-14T01:05:55.401Z,85.78
2022-09-14T01:06:52.579Z,85.45
2022-09-14T01:08:07.326Z,85.17
2022-09-14T01:09:04.271Z,85.19
2022-09-14T01:10:34.720Z,85.32
2022-09-14T01:11:27.269Z,85.44
2022-09-14T01:12:35.880Z,85.35
2022-09-14T01:13:56.184Z,85.61
2022-09-14T01:14:54.793Z,85.36
2022-09-14T01:16:16.433Z,85.21
2022-09-14T01:17:18.783Z,85.17
2022-09-14T01:18:16.953Z,84.72
2022-09-14T01:19:14.840Z,84.87
2022-09-14T01:20:16.420Z,85.04
2022-09-14T01:21:12.623Z,85.41
2022-09-14T01:22:17.340Z,85.49
2022-09-14T01:23:34.220Z,85.44
2022-09-14T01:24:44.260Z,85.40
2022-09-14T01:25:55.150Z,85.49
2022-09-14T01:26:56.725Z,85.27
2022-09-14T01:27:44.268Z,85.39
2022-09-14T01:28:38.189Z,85.56
2022-09-14T01:29:36.800Z,85.72
2022-09-14T01:30:24.519Z,85.98
2022-09-14T01:31:17.964Z,86.18
2022-09-14T01:32:29.139Z,86.28
2022-09-14T01:33:21.500Z,86.39
2022-09-14T01:34:16.750Z,86.31
2022-09-14T01:35:31.939Z,86.04
2022-09-14T01:36:18.680Z,86.17
2022-09-14T01:37:13.313Z,86.44
2022-09-14T01:38:09.726Z,86.32
2022-09-14T01:38:56.758Z,86.14
2022-09-14T01:39:47.381Z,86.05
2022-09-14T01:40:38.183Z,86.29
2022-09-14T01:41:29.323Z,86.56
2022-09-14T01:42:17.400Z,86.51
2022-09-14T01:43:09.169Z,86.42
2022-09-14T01:44:11.948Z,86.71
2022-09-14T01:45:01.374Z,86.44
2022-09-14T01:45:57.264Z,85.92
2022-09-14T01:46:48.044Z,85.79
2022-09-14T01:47:39.979Z,85.95
2022-09-14T01:49:25.179Z,85.38
2022-09-14T01:50:16.520Z,85.24
2022-09-14T01:51:10.570Z,85.40
2022-09-14T01:52:02.810Z,85.40
2022-09-14T01:52:59.862Z,85.66
2022-09-14T01:53:55.901Z,85.62
2022-09-14T01:54:50.639Z,85.46
2022-09-14T01:55:43.899Z,85.68
2022-09-14T01:56:39.081Z,85.58
2022-09-14T01:57:56.969Z,85.83
2022-09-14T01:59:03.530Z,86.16
2022-09-14T01:59:54.399Z,85.55
2022-09-14T02:00:44.123Z,85.52
2022-09-14T02:01:37.957Z,85.35
2022-09-14T02:02:29.210Z,85.35
2022-09-14T02:03:18.978Z,85.10
2022-09-14T02:04:08.989Z,84.82
2022-09-14T02:05:11.319Z,84.61
2022-09-14T02:06:05.699Z,84.73
2022-09-14T02:06:52.359Z,84.67
2022-09-14T02:07:39.179Z,84.69
2022-09-14T02:08:28.581Z,84.57
2022-09-14T02:09:19.705Z,84.62
2022-09-14T02:10:09.745Z,84.06
2022-09-14T02:10:57.600Z,83.87
2022-09-14T02:11:44.698Z,83.94
2022-09-14T02:12:31.419Z,83.61
2022-09-14T02:13:18.074Z,83.81
2022-09-14T02:14:05.097Z,83.34
2022-09-14T02:14:53.413Z,82.98
2022-09-14T02:15:40.158Z,82.85
2022-09-14T02:16:26.878Z,82.63
2022-09-14T02:17:13.913Z,82.76
2022-09-14T02:18:00.910Z,82.54
2022-09-14T02:18:47.550Z,82.42
2022-09-14T02:19:40.179Z,82.43
2022-09-14T02:20:41.723Z,82.24
2022-09-14T02:21:31.318Z,82.11
2022-09-14T02:22:17.921Z,82.37
2022-09-14T02:23:05.369Z,82.49
2022-09-14T02:23:52.359Z,82.26
2022-09-14T02:24:39.109Z,81.68
2022-09-14T02:25:25.769Z,81.52
2022-09-14T02:26:12.600Z,81.20
2022-09-14T02:26:59.960Z,81.30
2022-09-14T02:27:48.239Z,80.90
2022-09-14T02:28:34.939Z,80.42
2022-09-14T02:29:21.640Z,80.60
2022-09-14T02:30:08.950Z,80.38
2022-09-14T02:31:05.099Z,80.18
2022-09-14T02:32:30.860Z,80.09
2022-09-14T02:33:26.679Z,79.56
2022-09-14T02:34:22.260Z,79.17
2022-09-14T02:35:14.440Z,78.96
2022-09-14T02:36:16.981Z,78.86
2022-09-14T02:37:24.918Z,78.46
2022-09-14T02:38:22.079Z,77.96
2022-09-14T02:39:11.280Z,77.41
2022-09-14T02:40:26.784Z,77.35
2022-09-14T02:41:33.020Z,77.21
2022-09-14T02:42:34.211Z,76.92
2022-09-14T02:43:42.909Z,76.91
2022-09-14T02:44:37.819Z,76.84
2022-09-14T02:46:01.481Z,77.02
2022-09-14T02:46:58.915Z,76.39
2022-09-14T02:48:17.820Z,76.12
2022-09-14T02:49:07.219Z,75.57
2022-09-14T02:50:03.982Z,75.57
2022-09-14T02:51:16.099Z,75.55
2022-09-14T02:52:16.734Z,75.56
2022-09-14T02:53:21.742Z,75.33
2022-09-14T02:54:31.059Z,75.24
2022-09-14T02:55:20.439Z,74.85
2022-09-14T02:56:09.159Z,74.98
2022-09-14T02:57:00.359Z,74.93
2022-09-14T02:58:04.398Z,74.54
2022-09-14T02:58:51.083Z,74.85
2022-09-14T02:59:37.942Z,75.14
2022-09-14T03:00:24.561Z,75.36
2022-09-14T03:01:17.231Z,75.43
2022-09-14T03:02:04.116Z,75.37
2022-09-14T03:02:50.802Z,75.72
2022-09-14T03:03:37.442Z,75.94
2022-09-14T03:04:24.081Z,75.81
2022-09-14T03:05:10.670Z,75.77
2022-09-14T03:05:57.539Z,75.90
2022-09-14T03:06:44.139Z,75.66
2022-09-14T03:07:30.780Z,75.29
2022-09-14T03:08:17.410Z,75.45
2022-09-14T03:09:04.009Z,75.45
2022-09-14T03:09:50.680Z,75.47
2022-09-14T03:10:37.762Z,75.35
2022-09-14T03:11:24.419Z,75.26
2022-09-14T03:12:11.019Z,75.49
2022-09-14T03:12:57.899Z,75.48
2022-09-14T03:13:44.602Z,75.42
2022-09-14T03:14:31.202Z,74.97
2022-09-14T03:15:17.800Z,74.96
2022-09-14T03:16:10.368Z,75.04
2022-09-14T03:16:57.006Z,75.29
2022-09-14T03:17:47.540Z,75.32
2022-09-14T03:18:34.368Z,75.21
2022-09-14T03:19:20.987Z,75.18
2022-09-14T03:20:07.899Z,75.25
2022-09-14T03:20:54.530Z,75.56
2022-09-14T03:21:41.150Z,75.94
2022-09-14T03:22:27.759Z,75.88
2022-09-14T03:23:14.681Z,75.60
2022-09-14T03:24:01.392Z,75.38
2022-09-14T03:24:48.019Z,75.57
2022-09-14T03:25:43.343Z,75.51
2022-09-14T03:26:29.983Z,75.61
2022-09-14T03:27:16.640Z,75.68
2022-09-14T03:28:03.400Z,75.68
2022-09-14T03:28:55.299Z,75.87
2022-09-14T03:29:42.000Z,76.13
2022-09-14T03:30:29.229Z,75.83
2022-09-14T03:31:16.160Z,75.59
2022-09-14T03:32:02.870Z,75.71
2022-09-14T03:32:49.959Z,75.70
2022-09-14T03:33:36.580Z,76.10
2022-09-14T03:34:23.161Z,76.18
2022-09-14T03:35:09.860Z,76.07
2022-09-14T03:35:56.527Z,76.11
2022-09-14T03:36:43.120Z,76.17
2022-09-14T03:37:29.711Z,76.21
2022-09-14T03:38:16.335Z,75.80
2022-09-14T03:39:03.040Z,75.88
2022-09-14T03:39:49.693Z,76.18
2022-09-14T03:40:36.389Z,76.47
2022-09-14T03:41:24.399Z,76.40
2022-09-14T03:42:11.019Z,76.13
2022-09-14T03:42:57.821Z,76.04
2022-09-14T03:43:45.120Z,76.23
2022-09-14T03:44:31.759Z,76.16
2022-09-14T03:45:20.219Z,76.08
2022-09-14T03:46:15.574Z,75.79
2022-09-14T03:47:02.336Z,75.99
2022-09-14T03:47:49.701Z,75.86
2022-09-14T03:48:36.500Z,75.90
2022-09-14T03:49:23.100Z,76.21
2022-09-14T03:50:12.150Z,76.35
2022-09-14T03:51:03.001Z,75.95
2022-09-14T03:51:49.609Z,75.91
2022-09-14T03:52:37.300Z,75.95
2022-09-14T03:53:23.920Z,76.10
2022-09-14T03:54:10.519Z,76.40
2022-09-14T03:54:57.289Z,76.47
2022-09-14T03:55:43.963Z,76.50
2022-09-14T03:56:31.126Z,76.48
2022-09-14T03:57:18.169Z,76.53
2022-09-14T03:58:04.778Z,76.62
2022-09-14T03:58:51.718Z,76.75
2022-09-14T03:59:42.980Z,76.82
2022-09-14T04:00:30.270Z,76.82
2022-09-14T04:01:19.099Z,77.23
2022-09-14T04:02:05.872Z,77.22
2022-09-14T04:02:52.579Z,77.20
2022-09-14T04:03:39.230Z,77.35
2022-09-14T04:04:26.109Z,77.62
2022-09-14T04:05:12.711Z,77.74
2022-09-14T04:05:59.790Z,77.77
2022-09-14T04:06:47.640Z,77.51
2022-09-14T04:07:34.320Z,77.41
2022-09-14T04:08:20.941Z,77.23
2022-09-14T04:09:07.596Z,77.38
2022-09-14T04:09:54.192Z,77.41
2022-09-14T04:10:40.970Z,78.08
2022-09-14T04:11:29.020Z,78.34
2022-09-14T04:12:15.700Z,78.38
2022-09-14T04:13:02.319Z,77.91
2022-09-14T04:13:49.553Z,77.96
2022-09-14T04:14:36.402Z,78.15
2022-09-14T04:15:23.069Z,78.41
2022-09-14T04:16:09.828Z,78.20
2022-09-14T04:16:56.489Z,78.29
2022-09-14T04:17:43.224Z,78.64
2022-09-14T04:18:30.067Z,78.88
2022-09-14T04:19:16.691Z,78.79
2022-09-14T04:20:03.699Z,78.74
2022-09-14T04:21:05.765Z,78.77
2022-09-14T04:21:54.560Z,78.81
2022-09-14T04:22:41.200Z,78.53
2022-09-14T04:23:28.080Z,78.55
2022-09-14T04:24:16.206Z,78.53
2022-09-14T04:25:03.221Z,78.35
2022-09-14T04:25:49.902Z,78.48
2022-09-14T04:26:37.089Z,78.36
2022-09-14T04:27:23.689Z,78.69
2022-09-14T04:28:20.204Z,78.78
2022-09-14T04:29:07.500Z,78.48
2022-09-14T04:29:54.103Z,78.36
2022-09-14T04:30:40.681Z,78.53
2022-09-14T04:31:27.484Z,78.59
2022-09-14T04:32:14.127Z,78.49
2022-09-14T04:33:00.720Z,78.46
2022-09-14T04:33:50.601Z,78.45
2022-09-14T04:34:37.322Z,78.29
2022-09-14T04:35:23.921Z,78.27
2022-09-14T04:36:13.350Z,78.30
2022-09-14T04:36:59.941Z,78.38
2022-09-14T04:37:46.580Z,78.33
2022-09-14T04:38:33.239Z,78.10
2022-09-14T04:39:20.170Z,78.09
2022-09-14T04:40:07.483Z,78.13
2022-09-14T04:40:54.181Z,78.08
2022-09-14T04:41:41.019Z,78.15
2022-09-14T04:42:27.722Z,77.60
2022-09-14T04:43:14.330Z,77.57
2022-09-14T04:44:01.109Z,77.76
2022-09-14T04:44:47.741Z,77.62
2022-09-14T04:45:34.398Z,77.63
2022-09-14T04:46:22.748Z,77.62
2022-09-14T04:47:09.379Z,77.44
2022-09-14T04:47:55.959Z,77.07
2022-09-14T04:48:43.068Z,77.15
2022-09-14T04:49:29.730Z,76.69
2022-09-14T04:50:16.351Z,76.89
2022-09-14T04:51:19.810Z,76.83
2022-09-14T04:52:06.413Z,76.71
2022-09-14T04:52:53.024Z,76.91
2022-09-14T04:53:40.180Z,76.97
2022-09-14T04:54:26.860Z,77.08
2022-09-14T04:55:13.800Z,77.09
2022-09-14T04:56:01.609Z,76.67
2022-09-14T04:56:48.328Z,76.57
2022-09-14T04:57:34.941Z,76.38
2022-09-14T04:58:21.540Z,76.44
2022-09-14T04:59:08.290Z,76.22
2022-09-14T04:59:54.899Z,75.98
2022-09-14T05:00:41.510Z,75.73
2022-09-14T05:01:30.049Z,75.76
2022-09-14T05:02:16.925Z,75.71
2022-09-14T05:03:05.041Z,75.39
2022-09-14T05:03:52.389Z,75.26
2022-09-14T05:04:38.999Z,75.37
2022-09-14T05:05:25.821Z,74.69
2022-09-14T05:06:15.637Z,74.26
2022-09-14T05:07:02.309Z,74.38
2022-09-14T05:07:48.959Z,74.69
2022-09-14T05:08:36.660Z,75.56
2022-09-14T05:09:23.282Z,75.25
2022-09-14T05:10:10.022Z,75.42
2022-09-14T05:10:57.850Z,75.21
2022-09-14T05:11:44.770Z,74.93
2022-09-14T05:12:31.380Z,74.86
2022-09-14T05:13:18.002Z,74.84
2022-09-14T05:14:05.342Z,74.88
2022-09-14T05:14:51.973Z,75.06
2022-09-14T05:15:38.641Z,75.00
2022-09-14T05:16:30.250Z,74.83
2022-09-14T05:17:16.880Z,75.39
2022-09-14T05:18:03.561Z,75.06
2022-09-14T05:18:50.991Z,75.04
2022-09-14T05:19:37.582Z,75.11
2022-09-14T05:20:24.241Z,74.92
2022-09-14T05:21:13.310Z,75.04
2022-09-14T05:21:59.929Z,74.92
2022-09-14T05:22:49.840Z,75.02
2022-09-14T05:23:37.102Z,75.08
2022-09-14T05:24:23.781Z,75.07
2022-09-14T05:25:10.421Z,75.20
2022-09-14T05:25:57.320Z,75.30
2022-09-14T05:26:45.283Z,75.46
2022-09-14T05:27:32.162Z,75.46
2022-09-14T05:28:18.759Z,75.36
2022-09-14T05:29:05.629Z,75.42
2022-09-14T05:29:52.259Z,75.72
2022-09-14T05:30:41.709Z,75.76
2022-09-14T05:31:29.317Z,75.44
2022-09-14T05:32:15.940Z,76.13
2022-09-14T05:33:02.578Z,76.35
2022-09-14T05:33:49.965Z,76.65
2022-09-14T05:34:36.900Z,76.06
2022-09-14T05:35:23.619Z,75.26
2022-09-14T05:36:10.525Z,75.06
2022-09-14T05:36:57.124Z,75.08
2022-09-14T05:37:43.730Z,75.26
2022-09-14T05:38:31.385Z,75.50
2022-09-14T05:39:23.031Z,75.75
2022-09-14T05:40:10.589Z,75.50
2022-09-14T05:40:57.320Z,75.76
2022-09-14T05:41:43.943Z,75.90
2022-09-14T05:42:30.620Z,76.12
2022-09-14T05:43:17.222Z,76.15
2022-09-14T05:44:04.010Z,76.50
2022-09-14T05:44:50.771Z,77.19
2022-09-14T05:45:37.398Z,77.35
2022-09-14T05:46:24.158Z,77.61
2022-09-14T05:47:10.798Z,77.73
2022-09-14T05:48:02.220Z,77.23
2022-09-14T05:48:51.767Z,76.85
2022-09-14T05:49:38.597Z,76.53
2022-09-14T05:50:25.259Z,76.03
2022-09-14T05:51:16.632Z,75.90
2022-09-14T05:52:03.475Z,76.98
2022-09-14T05:52:51.601Z,78.49
2022-09-14T05:53:38.309Z,79.30
2022-09-14T05:54:25.321Z,80.24
2022-09-14T05:55:11.939Z,80.80
2022-09-14T05:56:06.359Z,82.27
2022-09-14T05:56:52.996Z,82.39
2022-09-14T05:57:39.579Z,83.28
2022-09-14T05:58:27.090Z,83.42
2022-09-14T05:59:13.846Z,83.54
2022-09-14T06:00:00.531Z,83.34
2022-09-14T06:00:47.190Z,83.46
2022-09-14T06:01:33.994Z,83.18
2022-09-14T06:02:20.799Z,83.06
2022-09-14T06:03:07.591Z,82.34
2022-09-14T06:04:00.425Z,81.95
2022-09-14T06:04:47.047Z,83.37
2022-09-14T06:05:35.779Z,82.86
2022-09-14T06:06:22.720Z,83.14
2022-09-14T06:07:18.289Z,83.06
2022-09-14T06:08:06.044Z,82.75
2022-09-14T06:08:54.277Z,82.66
2022-09-14T06:09:41.000Z,82.46
2022-09-14T06:10:27.651Z,83.13
2022-09-14T06:11:19.630Z,83.21
2022-09-14T06:12:06.501Z,82.93
2022-09-14T06:12:55.482Z,82.73
2022-09-14T06:13:43.315Z,82.12
2022-09-14T06:14:30.070Z,81.94
2022-09-14T06:15:17.060Z,82.30
2022-09-14T06:16:09.430Z,81.62
2022-09-14T06:16:56.169Z,80.47
2022-09-14T06:17:42.930Z,80.92
2022-09-14T06:18:32.129Z,82.02
2022-09-14T06:19:18.931Z,82.27
2022-09-14T06:20:07.971Z,83.01
2022-09-14T06:20:54.725Z,82.96
2022-09-14T06:21:42.219Z,83.21
2022-09-14T06:22:28.881Z,83.16
2022-09-14T06:23:15.579Z,82.78
2022-09-14T06:24:02.721Z,82.58
2022-09-14T06:24:49.480Z,79.97
2022-09-14T06:25:36.181Z,80.50
2022-09-14T06:26:22.962Z,80.49
2022-09-14T06:27:10.271Z,78.28
2022-09-14T06:27:57.058Z,78.01
2022-09-14T06:28:44.149Z,77.25
2022-09-14T06:29:31.310Z,76.53
2022-09-14T06:30:18.080Z,75.52
2022-09-14T06:31:08.680Z,76.04
2022-09-14T06:31:55.364Z,76.73
2022-09-14T06:32:42.279Z,76.51
2022-09-14T06:33:29.090Z,75.97
2022-09-14T06:34:15.822Z,75.38
2022-09-14T06:35:03.960Z,76.09
2022-09-14T06:36:09.327Z,76.79
2022-09-14T06:36:56.599Z,75.20
2022-09-14T06:37:43.378Z,75.55
2022-09-14T06:38:30.649Z,75.30
2022-09-14T06:39:17.803Z,75.52
2022-09-14T06:40:05.157Z,75.15
2022-09-14T06:40:57.251Z,76.23
2022-09-14T06:41:44.261Z,76.51
2022-09-14T06:42:31.181Z,75.44
2022-09-14T06:43:17.899Z,75.25
2022-09-14T06:44:04.802Z,74.29
2022-09-14T06:44:51.462Z,74.67
2022-09-14T06:45:38.521Z,73.95
2022-09-14T06:46:31.350Z,73.33
2022-09-14T06:47:18.099Z,73.43
2022-09-14T06:48:04.990Z,73.50
2022-09-14T06:48:53.052Z,73.40
2022-09-14T06:49:39.811Z,71.84
2022-09-14T06:50:26.751Z,71.68
2022-09-14T06:51:16.542Z,71.91
2022-09-14T06:52:03.285Z,72.58
2022-09-14T06:52:50.189Z,72.75
2022-09-14T06:53:36.969Z,72.80
2022-09-14T06:54:24.971Z,70.31
2022-09-14T06:55:11.939Z,70.08
2022-09-14T06:55:59.579Z,71.37
2022-09-14T06:56:46.821Z,73.02
2022-09-14T06:57:33.580Z,72.31
2022-09-14T06:58:20.380Z,73.16
2022-09-14T06:59:08.940Z,72.39
2022-09-14T06:59:55.839Z,71.18
2022-09-14T07:00:42.860Z,70.46
2022-09-14T07:01:30.192Z,70.69
2022-09-14T07:02:16.934Z,71.01
2022-09-14T07:03:04.851Z,71.16
2022-09-14T07:03:52.642Z,69.94
2022-09-14T07:04:39.410Z,69.67
2022-09-14T07:05:26.199Z,70.89
2022-09-14T07:06:24.489Z,71.21
2022-09-14T07:07:11.315Z,70.94
2022-09-14T07:07:58.345Z,70.62
2022-09-14T07:08:45.168Z,70.92
2022-09-14T07:09:32.137Z,71.60
2022-09-14T07:10:19.379Z,71.04
2022-09-14T07:11:07.699Z,69.86
2022-09-14T07:11:54.926Z,69.45
2022-09-14T07:12:41.750Z,69.67
2022-09-14T07:13:29.589Z,69.28
2022-09-14T07:14:16.876Z,69.27
2022-09-14T07:15:04.978Z,68.01
2022-09-14T07:15:52.124Z,67.80
2022-09-14T07:16:40.271Z,67.25
2022-09-14T07:17:27.050Z,67.56
2022-09-14T07:18:13.940Z,68.04
2022-09-14T07:19:03.280Z,68.01
2022-09-14T07:19:50.010Z,68.98
2022-09-14T07:20:36.794Z,68.36
2022-09-14T07:21:24.358Z,67.66
2022-09-14T07:22:11.063Z,67.51
2022-09-14T07:22:57.970Z,67.85
2022-09-14T07:23:46.940Z,67.08
2022-09-14T07:24:33.701Z,66.18
2022-09-14T07:25:20.490Z,65.77
2022-09-14T07:26:16.669Z,65.06
2022-09-14T07:27:03.638Z,65.19
2022-09-14T07:27:50.555Z,65.72
2022-09-14T07:28:37.962Z,64.10
2022-09-14T07:29:24.981Z,63.64
2022-09-14T07:30:13.010Z,63.42
2022-09-14T07:31:00.353Z,63.98
2022-09-14T07:31:49.988Z,63.74
2022-09-14T07:32:36.790Z,62.81
2022-09-14T07:33:23.810Z,62.24
2022-09-14T07:34:11.541Z,62.30
2022-09-14T07:34:58.499Z,61.75
2022-09-14T07:35:45.260Z,61.52
2022-09-14T07:36:35.400Z,61.68
2022-09-14T07:37:22.219Z,61.78
2022-09-14T07:38:09.050Z,61.55
2022-09-14T07:38:56.459Z,61.29
2022-09-14T07:39:43.317Z,61.84
2022-09-14T07:40:30.488Z,61.72
2022-09-14T07:41:17.371Z,60.64
2022-09-14T07:42:04.331Z,61.12
2022-09-14T07:42:55.574Z,60.89
2022-09-14T07:43:44.581Z,60.77
2022-09-14T07:44:31.400Z,61.08
2022-09-14T07:45:18.121Z,60.67
2022-09-14T07:46:06.027Z,60.19
2022-09-14T07:46:52.870Z,60.44
2022-09-14T07:47:39.569Z,60.23
2022-09-14T07:48:26.650Z,60.02
2022-09-14T07:49:14.561Z,60.25
2022-09-14T07:50:01.325Z,60.74
2022-09-14T07:50:48.129Z,60.98
2022-09-14T07:51:37.041Z,60.75
2022-09-14T07:52:23.810Z,60.82
2022-09-14T07:53:10.600Z,60.90
2022-09-14T07:53:57.609Z,61.28
2022-09-14T07:54:44.411Z,61.21
2022-09-14T07:55:31.161Z,60.23
2022-09-14T07:56:18.060Z,59.43
2022-09-14T07:57:05.110Z,59.24
2022-09-14T07:57:56.422Z,59.44
2022-09-14T07:58:44.538Z,59.09
2022-09-14T07:59:35.969Z,58.92
2022-09-14T08:00:24.434Z,58.99
2022-09-14T08:01:13.456Z,58.50
2022-09-14T08:02:00.405Z,59.05
2022-09-14T08:02:52.818Z,58.27
2022-09-14T08:03:46.220Z,58.40
2022-09-14T08:04:36.800Z,58.50
2022-09-14T08:05:23.999Z,58.12
2022-09-14T08:06:21.582Z,58.11
2022-09-14T08:07:09.303Z,58.82
2022-09-14T08:07:56.570Z,58.93
2022-09-14T08:08:46.670Z,59.26
2022-09-14T08:09:33.542Z,59.64
2022-09-14T08:10:20.335Z,58.69
2022-09-14T08:11:11.248Z,58.42
2022-09-14T08:11:58.046Z,58.32
2022-09-14T08:12:44.741Z,58.16
2022-09-14T08:13:32.961Z,58.58
2022-09-14T08:14:19.620Z,58.12
2022-09-14T08:15:07.027Z,57.38
2022-09-14T08:15:53.741Z,57.25
2022-09-14T08:16:41.223Z,57.71
2022-09-14T08:17:28.303Z,57.67
2022-09-14T08:18:15.078Z,57.77
2022-09-14T08:19:03.981Z,57.65
2022-09-14T08:19:52.328Z,56.91
2022-09-14T08:20:39.222Z,56.61
2022-09-14T08:21:28.220Z,56.26
2022-09-14T08:22:15.130Z,56.42
2022-09-14T08:23:01.866Z,56.37
2022-09-14T08:23:49.080Z,56.13
2022-09-14T08:24:35.908Z,56.08
2022-09-14T08:25:22.667Z,55.97
2022-09-14T08:26:27.750Z,55.82
2022-09-14T08:27:17.148Z,55.27
2022-09-14T08:28:04.148Z,55.40
2022-09-14T08:28:51.816Z,56.12
2022-09-14T08:29:39.949Z,56.23
2022-09-14T08:30:26.703Z,56.83
2022-09-14T08:31:21.054Z,56.71
2022-09-14T08:32:07.884Z,56.67
2022-09-14T08:32:57.032Z,56.47
2022-09-14T08:33:48.521Z,56.59
2022-09-14T08:34:35.440Z,56.39
2022-09-14T08:35:40.853Z,56.30
2022-09-14T08:36:31.500Z,56.39
2022-09-14T08:37:18.481Z,56.94
2022-09-14T08:38:05.178Z,57.24
2022-09-14T08:38:52.290Z,57.33
2022-09-14T08:39:39.018Z,57.59
2022-09-14T08:40:25.949Z,57.58
2022-09-14T08:41:18.328Z,58.22
2022-09-14T08:42:06.400Z,58.25
2022-09-14T08:42:55.790Z,58.39
2022-09-14T08:43:42.490Z,58.36
2022-09-14T08:44:44.923Z,57.96
2022-09-14T08:45:32.032Z,57.69
2022-09-14T08:46:31.451Z,57.56
2022-09-14T08:47:34.302Z,56.97
2022-09-14T08:48:30.761Z,57.16
2022-09-14T08:49:30.290Z,56.94
2022-09-14T08:50:19.982Z,57.51
2022-09-14T08:51:06.807Z,57.07
2022-09-14T08:51:53.647Z,57.58
2022-09-14T08:52:44.641Z,58.29
2022-09-14T08:53:35.450Z,57.79
2022-09-14T08:54:22.558Z,57.19
2022-09-14T08:55:30.908Z,57.02
2022-09-14T08:56:21.891Z,57.35
2022-09-14T08:57:29.003Z,57.39
2022-09-14T08:58:15.755Z,56.79
2022-09-14T08:59:08.950Z,56.72
2022-09-14T09:00:01.875Z,56.45
2022-09-14T09:01:02.473Z,56.13
2022-09-14T09:02:20.050Z,54.80
2022-09-14T09:03:25.580Z,56.23
2022-09-14T09:04:29.615Z,55.18
2022-09-14T09:05:36.870Z,54.41
2022-09-14T09:06:52.730Z,54.92
2022-09-14T09:07:46.650Z,54.62
2022-09-14T09:08:48.335Z,54.67
2022-09-14T09:09:45.168Z,54.45
2022-09-14T09:10:32.501Z,54.84
2022-09-14T09:11:21.370Z,54.78
2022-09-14T09:12:13.589Z,54.36
2022-09-14T09:13:01.486Z,54.27
2022-09-14T09:13:50.058Z,54.19
2022-09-14T09:14:40.888Z,53.82
2022-09-14T09:15:34.857Z,54.08
2022-09-14T09:16:24.488Z,54.21
2022-09-14T09:17:25.140Z,53.95
2022-09-14T09:18:15.418Z,54.57
2022-09-14T09:19:06.079Z,54.67
2022-09-14T09:20:23.627Z,55.10
2022-09-14T09:21:16.580Z,54.66
2022-09-14T09:22:06.110Z,53.77
2022-09-14T09:23:17.120Z,53.51
2022-09-14T09:24:18.340Z,53.88
2022-09-14T09:25:05.470Z,54.26
2022-09-14T09:26:19.916Z,53.90
2022-09-14T09:27:14.362Z,53.50
2022-09-14T09:28:03.499Z,53.93
2022-09-14T09:28:52.658Z,53.89
2022-09-14T09:29:39.840Z,53.98
2022-09-14T09:30:28.888Z,53.48
2022-09-14T09:31:17.555Z,54.71
2022-09-14T09:32:04.940Z,54.67
2022-09-14T09:32:52.247Z,55.45
2022-09-14T09:33:39.250Z,55.58
2022-09-14T09:34:30.410Z,54.73
2022-09-14T09:35:20.828Z,55.14
2022-09-14T09:36:08.338Z,54.63
2022-09-14T09:37:00.983Z,54.01
2022-09-14T09:37:47.689Z,53.60
2022-09-14T09:38:34.808Z,53.51
2022-09-14T09:39:23.294Z,53.47
2022-09-14T09:40:22.956Z,53.72
2022-09-14T09:41:23.436Z,53.88
2022-09-14T09:42:23.730Z,53.86
2022-09-14T09:43:24.471Z,53.62
2022-09-14T09:44:20.550Z,52.82
2022-09-14T09:45:07.420Z,53.51
2022-09-14T09:46:04.780Z,53.25
2022-09-14T09:46:55.836Z,53.74
2022-09-14T09:47:43.099Z,54.24
2022-09-14T09:48:33.789Z,54.02
2022-09-14T09:49:23.528Z,54.17
2022-09-14T09:50:13.890Z,54.72
2022-09-14T09:51:20.909Z,54.49
2022-09-14T09:52:15.790Z,54.08
2022-09-14T09:53:06.702Z,53.87
2022-09-14T09:54:17.262Z,53.93
2022-09-14T09:55:05.610Z,54.15
2022-09-14T09:55:52.499Z,53.74
2022-09-14T09:56:41.929Z,53.06
2022-09-14T09:57:34.507Z,52.86
2022-09-14T09:58:21.938Z,53.03
2022-09-14T09:59:36.273Z,53.23
2022-09-14T10:00:24.448Z,52.47
2022-09-14T10:01:38.297Z,53.25
2022-09-14T10:02:30.680Z,53.67
2022-09-14T10:03:28.742Z,53.14
2022-09-14T10:04:25.470Z,53.61
2022-09-14T10:05:18.159Z,53.22
2022-09-14T10:06:10.240Z,53.04
2022-09-14T10:06:58.142Z,53.55
2022-09-14T10:07:53.049Z,53.68
2022-09-14T10:08:44.400Z,53.74
2022-09-14T10:09:31.150Z,54.04
2022-09-14T10:10:21.139Z,54.41
2022-09-14T10:11:31.019Z,54.31
2022-09-14T10:12:17.826Z,55.00
2022-09-14T10:13:06.880Z,54.97
2022-09-14T10:13:53.798Z,54.31
2022-09-14T10:14:40.890Z,55.13
2022-09-14T10:15:34.974Z,55.60
2022-09-14T10:16:21.972Z,55.97
2022-09-14T10:17:22.182Z,55.79
2022-09-14T10:18:17.219Z,55.81
2022-09-14T10:19:04.605Z,55.12
2022-09-14T10:19:54.183Z,55.96
2022-09-14T10:20:54.424Z,56.24
2022-09-14T10:22:26.286Z,55.70
2022-09-14T10:23:24.359Z,55.78
2022-09-14T10:24:18.050Z,57.26
2022-09-14T10:25:25.919Z,56.86
2022-09-14T10:26:12.661Z,56.95
2022-09-14T10:26:59.480Z,57.26
2022-09-14T10:27:53.179Z,57.05
2022-09-14T10:28:44.670Z,57.02
2022-09-14T10:29:37.804Z,56.49
2022-09-14T10:30:51.218Z,56.84
2022-09-14T10:31:39.766Z,56.13
2022-09-14T10:32:27.419Z,55.65
2022-09-14T10:33:16.261Z,55.22
2022-09-14T10:34:17.327Z,55.24
2022-09-14T10:35:12.470Z,55.14
2022-09-14T10:36:26.423Z,55.44
2022-09-14T10:37:25.759Z,56.04
2022-09-14T10:38:18.560Z,56.03
2022-09-14T10:39:24.099Z,55.25
2022-09-14T10:40:18.834Z,55.38
2022-09-14T10:41:22.717Z,54.93
2022-09-14T10:42:12.250Z,54.97
2022-09-14T10:43:31.839Z,54.91
2022-09-14T10:44:45.750Z,54.88
2022-09-14T10:45:37.244Z,54.14
2022-09-14T10:46:30.994Z,54.09
2022-09-14T10:47:32.909Z,54.25
2022-09-14T10:48:36.320Z,53.87
2022-09-14T10:49:45.171Z,54.13
2022-09-14T10:51:04.480Z,53.63
2022-09-14T10:52:00.340Z,52.86
2022-09-14T10:53:05.361Z,52.95